Time;durP1;ratioP1;P1;durP2;ratioP2;P2;SDS_P1;SDS_P2;PMS_P1;PMS_P2;Temp;Humidity;BMP_temperature;BMP_pressure;BME280_temperature;BME280_humidity;BME280_pressure;Samples;Min_cycle;Max_cycle;Signal;HPM_P1;HPM_P2
2022/11/14 00:00:32;;;;;;;18.40;8.40;;;;;;;6.55;99.92;102406.56;104975;1275;59098;-77
2022/11/14 00:03:19;;;;;;;16.80;6.20;;;;;;;6.56;99.80;102403.60;104985;1272;71843;-79
2022/11/14 00:06:07;;;;;;;19.40;8.50;;;;;;;6.54;99.75;102402.09;105157;1278;72948;-78
2022/11/14 00:08:54;;;;;;;19.10;9.30;;;;;;;6.54;100.00;102401.06;105725;1271;70789;-75
2022/11/14 00:11:41;;;;;;;17.80;9.20;;;;;;;6.54;100.00;102398.29;105667;1278;73859;-76
2022/11/14 00:14:28;;;;;;;19.00;9.10;;;;;;;6.54;100.00;102398.48;105142;1272;59137;-77
2022/11/14 00:17:16;;;;;;;17.30;8.40;;;;;;;6.55;100.00;102403.27;104961;1272;61269;-76
2022/11/14 00:20:05;;;;;;;18.80;8.80;;;;;;;6.58;100.00;102402.51;105164;1268;63328;-78
2022/11/14 00:22:53;;;;;;;21.10;9.80;;;;;;;6.59;100.00;102402.83;104890;1275;72218;-74
2022/11/14 00:25:40;;;;;;;19.20;8.90;;;;;;;6.59;100.00;102400.93;104937;1278;71041;-76
2022/11/14 00:28:27;;;;;;;18.40;9.70;;;;;;;6.61;100.00;102398.27;104931;1276;72327;-76
2022/11/14 00:31:14;;;;;;;21.30;9.20;;;;;;;6.59;100.00;102401.09;104828;1280;62980;-77
2022/11/14 00:34:01;;;;;;;20.20;9.90;;;;;;;6.59;100.00;102399.38;105035;1271;59110;-76
2022/11/14 00:36:48;;;;;;;17.10;8.80;;;;;;;6.59;100.00;102394.00;105044;1278;74101;-75
2022/11/14 00:39:35;;;;;;;18.10;8.20;;;;;;;6.59;100.00;102399.36;105351;1272;72045;-72
2022/11/14 00:42:22;;;;;;;20.40;9.40;;;;;;;6.61;100.00;102398.27;105159;1278;70320;-75
2022/11/14 00:45:10;;;;;;;16.30;8.50;;;;;;;6.61;100.00;102397.22;105116;1271;64648;-78
2022/11/14 00:47:57;;;;;;;18.10;8.40;;;;;;;6.56;100.00;102399.11;104967;1273;62958;-74
2022/11/14 00:50:45;;;;;;;14.20;7.70;;;;;;;6.56;100.00;102393.02;105044;1280;61996;-75
2022/11/14 00:53:32;;;;;;;15.90;8.20;;;;;;;6.56;100.00;102395.64;105118;1278;64553;-74
2022/11/14 00:56:22;;;;;;;15.60;7.50;;;;;;;6.52;100.00;102396.11;105075;1272;72060;-74
2022/11/14 00:59:10;;;;;;;14.10;7.30;;;;;;;6.50;100.00;102395.11;105081;1268;70327;-73
2022/11/14 01:01:57;;;;;;;16.50;8.00;;;;;;;6.52;100.00;102394.71;105096;1273;62844;-74
2022/11/14 01:04:44;;;;;;;15.70;7.60;;;;;;;6.53;100.00;102390.20;105098;1278;62129;-74
2022/11/14 01:07:32;;;;;;;14.80;7.40;;;;;;;6.54;100.00;102387.04;105066;1272;61479;-79
2022/11/14 01:10:20;;;;;;;14.80;7.70;;;;;;;6.53;100.00;102385.00;105236;1275;62976;-75
2022/11/14 01:13:09;;;;;;;11.80;7.10;;;;;;;6.53;100.00;102388.14;105082;1271;71731;-75
2022/11/14 01:16:00;;;;;;;13.60;7.50;;;;;;;6.53;100.00;102387.23;104961;1278;70113;-75
2022/11/14 01:18:48;;;;;;;14.10;7.30;;;;;;;6.51;100.00;102385.59;104871;1278;73826;-74
2022/11/14 01:21:35;;;;;;;17.90;9.30;;;;;;;6.52;100.00;102385.55;104858;1274;59112;-75
2022/11/14 01:24:22;;;;;;;16.80;8.60;;;;;;;6.53;100.00;102384.65;104987;1272;59185;-75
2022/11/14 01:27:09;;;;;;;16.20;7.90;;;;;;;6.52;100.00;102382.77;104988;1272;64019;-74
2022/11/14 01:29:56;;;;;;;14.60;6.70;;;;;;;6.51;100.00;102380.39;105001;1277;61697;-75
2022/11/14 01:32:43;;;;;;;14.20;6.60;;;;;;;6.51;100.00;102380.05;105098;1271;59101;-75
2022/11/14 01:35:33;;;;;;;14.20;7.50;;;;;;;6.50;100.00;102381.42;105148;1280;73874;-74
2022/11/14 01:38:20;;;;;;;12.90;7.20;;;;;;;6.50;100.00;102379.36;105148;1270;59021;-73
2022/11/14 01:41:10;;;;;;;13.80;7.40;;;;;;;6.52;100.00;102377.58;105161;1271;58962;-76
2022/11/14 01:43:57;;;;;;;12.80;6.50;;;;;;;6.54;100.00;102374.92;104998;1278;73241;-72
2022/11/14 01:46:53;;;;;;;13.10;7.20;;;;;;;6.55;100.00;102373.68;105094;1271;60846;-72
2022/11/14 01:49:46;;;;;;;13.30;6.90;;;;;;;6.58;100.00;102373.24;104689;1278;675995;-75
2022/11/14 01:52:38;;;;;;;12.70;6.50;;;;;;;6.58;100.00;102369.95;105151;1271;73414;-72
2022/11/14 01:55:26;;;;;;;14.00;7.00;;;;;;;6.57;100.00;102369.28;105180;1277;58813;-73
2022/11/14 01:58:15;;;;;;;12.30;6.90;;;;;;;6.56;100.00;102371.06;105011;1273;59088;-73
2022/11/14 02:01:03;;;;;;;14.00;6.90;;;;;;;6.55;100.00;102367.80;105070;1273;72840;-71
2022/11/14 02:03:54;;;;;;;15.20;7.00;;;;;;;6.54;100.00;102368.02;104814;1280;71527;-73
2022/11/14 02:06:44;;;;;;;15.10;7.50;;;;;;;6.47;100.00;102369.92;105058;1278;59509;-74
2022/11/14 02:09:36;;;;;;;12.70;6.50;;;;;;;6.46;100.00;102367.38;105110;1272;63149;-72
2022/11/14 02:12:23;;;;;;;13.00;7.00;;;;;;;6.47;100.00;102368.39;105110;1271;62083;-73
2022/11/14 02:15:11;;;;;;;13.30;6.80;;;;;;;6.47;100.00;102363.87;104989;1276;60792;-74
2022/11/14 02:18:01;;;;;;;14.50;6.40;;;;;;;6.45;100.00;102364.61;104970;1275;73371;-74
2022/11/14 02:20:48;;;;;;;12.50;6.50;;;;;;;6.47;100.00;102365.10;105001;1275;72702;-73
2022/11/14 02:23:35;;;;;;;12.00;6.30;;;;;;;6.48;100.00;102362.83;105105;1278;59770;-72
2022/11/14 02:26:22;;;;;;;11.60;6.60;;;;;;;6.48;100.00;102358.65;104927;1278;63336;-73
2022/11/14 02:29:10;;;;;;;13.00;6.60;;;;;;;6.48;100.00;102357.11;105114;1271;63145;-73
2022/11/14 02:31:58;;;;;;;13.30;7.50;;;;;;;6.46;100.00;102356.45;105149;1268;61738;-72
2022/11/14 02:34:45;;;;;;;12.50;6.50;;;;;;;6.47;100.00;102351.75;104940;1269;72685;-71
2022/11/14 02:37:32;;;;;;;11.80;5.20;;;;;;;6.46;100.00;102350.58;105075;1272;72004;-73
2022/11/14 02:40:20;;;;;;;10.10;5.80;;;;;;;6.43;100.00;102351.36;104989;1271;70460;-74
2022/11/14 02:43:07;;;;;;;12.60;7.20;;;;;;;6.40;100.00;102351.28;104886;1280;62750;-72
2022/11/14 02:45:54;;;;;;;15.00;7.70;;;;;;;6.37;100.00;102345.48;104962;1274;58997;-72
2022/11/14 02:48:41;;;;;;;11.30;6.70;;;;;;;6.37;100.00;102349.27;104868;1272;59139;-73
2022/11/14 02:51:28;;;;;;;12.40;6.10;;;;;;;6.37;100.00;102341.15;105164;1271;63059;-72
2022/11/14 02:54:15;;;;;;;12.50;6.70;;;;;;;6.39;100.00;102339.35;105088;1267;60730;-72
2022/11/14 02:57:03;;;;;;;12.50;6.20;;;;;;;6.39;100.00;102342.48;105017;1276;68280;-76
2022/11/14 02:59:50;;;;;;;11.70;5.70;;;;;;;6.42;100.00;102341.54;104981;1283;71701;-74
2022/11/14 03:02:37;;;;;;;13.30;6.90;;;;;;;6.39;100.00;102341.09;105073;1271;58785;-74
2022/11/14 03:05:24;;;;;;;11.90;6.60;;;;;;;6.39;100.00;102341.09;105003;1273;61211;-75
2022/11/14 03:08:12;;;;;;;12.50;6.10;;;;;;;6.41;100.00;102343.48;104992;1269;62495;-74
2022/11/14 03:11:09;;;;;;;13.00;5.80;;;;;;;6.42;100.00;102345.17;105138;1272;71372;-75
2022/11/14 03:13:58;;;;;;;10.40;5.60;;;;;;;6.44;100.00;102343.54;105155;1267;70493;-75
2022/11/14 03:16:46;;;;;;;11.10;5.90;;;;;;;6.43;100.00;102338.38;105201;1278;73869;-76
2022/11/14 03:19:33;;;;;;;8.80;5.30;;;;;;;6.44;100.00;102337.32;105085;1280;63377;-73
2022/11/14 03:22:20;;;;;;;9.60;5.40;;;;;;;6.46;100.00;102341.75;105028;1274;59142;-74
2022/11/14 03:25:07;;;;;;;11.20;5.40;;;;;;;6.45;100.00;102342.82;105002;1278;62326;-76
2022/11/14 03:27:55;;;;;;;9.30;5.40;;;;;;;6.45;100.00;102340.77;105148;1272;62712;-74
2022/11/14 03:30:42;;;;;;;10.40;5.20;;;;;;;6.43;100.00;102340.81;105122;1272;59999;-74
2022/11/14 03:33:30;;;;;;;8.70;4.30;;;;;;;6.44;100.00;102339.76;105173;1280;65134;-76
2022/11/14 03:36:18;;;;;;;10.80;5.60;;;;;;;6.44;100.00;102341.13;105000;1278;63901;-73
2022/11/14 03:39:05;;;;;;;10.00;4.70;;;;;;;6.45;100.00;102340.22;105159;1272;61658;-74
2022/11/14 03:41:52;;;;;;;10.50;5.50;;;;;;;6.45;100.00;102340.91;105052;1277;73295;-75
2022/11/14 03:44:39;;;;;;;8.40;4.10;;;;;;;6.45;100.00;102339.38;104984;1274;63539;-75
2022/11/14 03:47:26;;;;;;;9.50;4.90;;;;;;;6.46;100.00;102338.13;105186;1271;59796;-76
2022/11/14 03:50:13;;;;;;;11.70;5.50;;;;;;;6.44;100.00;102335.39;105153;1272;63262;-75
2022/11/14 03:53:00;;;;;;;10.40;5.10;;;;;;;6.43;100.00;102328.52;105147;1278;59134;-74
2022/11/14 03:55:47;;;;;;;8.30;4.90;;;;;;;6.45;100.00;102328.81;105153;1277;58932;-75
2022/11/14 03:58:34;;;;;;;8.80;4.70;;;;;;;6.49;100.00;102327.13;105012;1268;72742;-74
2022/11/14 04:01:21;;;;;;;13.50;5.80;;;;;;;6.52;100.00;102322.20;105194;1272;64386;-77
2022/11/14 04:04:11;;;;;;;10.30;5.40;;;;;;;6.48;100.00;102322.99;104909;1274;59775;-75
2022/11/14 04:06:58;;;;;;;12.10;5.50;;;;;;;6.46;100.00;102322.73;105216;1278;73093;-74
2022/11/14 04:09:46;;;;;;;10.80;6.10;;;;;;;6.43;100.00;102317.09;105099;1277;57582;-72
2022/11/14 04:12:34;;;;;;;10.80;5.30;;;;;;;6.35;100.00;102313.69;104986;1283;62019;-73
2022/11/14 04:15:21;;;;;;;10.80;5.80;;;;;;;6.35;100.00;102309.73;105032;1278;62747;-74
2022/11/14 04:18:08;;;;;;;10.00;5.30;;;;;;;6.39;100.00;102310.96;104935;1275;70391;-75
2022/11/14 04:20:55;;;;;;;9.70;5.10;;;;;;;6.39;100.00;102311.33;105044;1283;68715;-74
2022/11/14 04:23:42;;;;;;;9.20;5.40;;;;;;;6.40;100.00;102308.86;104871;1275;63345;-74
2022/11/14 04:26:29;;;;;;;10.30;5.20;;;;;;;6.41;100.00;102310.22;105028;1283;58305;-75
2022/11/14 04:29:16;;;;;;;9.50;5.00;;;;;;;6.46;100.00;102308.70;105043;1275;61209;-76
2022/11/14 04:32:04;;;;;;;11.70;5.40;;;;;;;6.46;100.00;102307.00;104873;1275;73353;-77
2022/11/14 04:34:51;;;;;;;9.40;5.20;;;;;;;6.47;100.00;102309.88;104851;1277;61691;-76
2022/11/14 04:37:39;;;;;;;10.00;5.20;;;;;;;6.44;100.00;102309.98;104976;1274;69296;-75
2022/11/14 04:40:26;;;;;;;12.00;6.60;;;;;;;6.47;100.00;102309.89;105121;1275;63928;-76
2022/11/14 04:43:13;;;;;;;10.60;5.70;;;;;;;6.47;100.00;102312.46;105067;1281;59142;-76
2022/11/14 04:46:00;;;;;;;10.60;5.50;;;;;;;6.48;100.00;102312.30;105078;1282;61274;-73
2022/11/14 04:48:47;;;;;;;10.10;5.40;;;;;;;6.49;100.00;102311.18;105034;1265;73391;-74
2022/11/14 04:51:35;;;;;;;9.80;4.80;;;;;;;6.53;100.00;102309.52;105070;1277;72588;-78
2022/11/14 04:54:22;;;;;;;12.70;5.40;;;;;;;6.49;100.00;102311.90;105107;1275;70226;-77
2022/11/14 04:57:09;;;;;;;10.40;5.50;;;;;;;6.42;100.00;102314.89;105009;1274;73133;-75
2022/11/14 04:59:56;;;;;;;10.60;6.30;;;;;;;6.42;100.00;102316.60;104805;1285;58775;-76
2022/11/14 05:02:44;;;;;;;11.50;5.20;;;;;;;6.45;100.00;102316.02;104924;1285;60451;-76
2022/11/14 05:05:32;;;;;;;8.00;4.80;;;;;;;6.46;100.00;102318.40;105676;1281;64075;-79
2022/11/14 05:08:25;;;;;;;9.70;5.00;;;;;;;6.44;100.00;102317.41;105683;1274;61024;-79
2022/11/14 05:11:16;;;;;;;13.40;6.90;;;;;;;6.41;100.00;102322.02;105944;1273;59904;-79
2022/11/14 05:14:03;;;;;;;17.80;9.10;;;;;;;6.37;100.00;102324.73;106405;1275;72999;-78
2022/11/14 05:16:58;;;;;;;19.20;8.80;;;;;;;6.37;100.00;102324.52;107167;1255;58885;-78
2022/11/14 05:19:45;;;;;;;16.40;9.00;;;;;;;6.44;100.00;102323.98;106984;1269;59089;-79
2022/11/14 05:22:38;;;;;;;17.30;9.50;;;;;;;6.50;100.00;102321.04;106887;1275;73538;-78
2022/11/14 05:25:25;;;;;;;11.00;6.70;;;;;;;6.46;100.00;102323.23;106901;1268;61112;-79
2022/11/14 05:28:15;;;;;;;13.60;7.90;;;;;;;6.44;100.00;102326.06;106851;1274;69661;-80
2022/11/14 05:31:12;;;;;;;12.70;7.80;;;;;;;6.40;100.00;102328.95;106896;1270;62964;-80
2022/11/14 05:33:59;;;;;;;13.40;8.10;;;;;;;6.43;100.00;102327.33;106922;1269;57787;-80
2022/11/14 05:36:46;;;;;;;12.80;8.10;;;;;;;6.47;100.00;102323.55;107155;1269;60253;-79
2022/11/14 05:39:33;;;;;;;11.40;6.00;;;;;;;6.54;100.00;102323.69;106903;1267;73060;-79
2022/11/14 05:42:21;;;;;;;12.30;6.30;;;;;;;6.58;100.00;102324.61;106933;1271;60662;-80
2022/11/14 05:45:09;;;;;;;10.20;6.00;;;;;;;6.62;100.00;102325.15;106826;1277;59047;-79
2022/11/14 05:47:57;;;;;;;11.70;5.90;;;;;;;6.63;100.00;102326.36;106905;1269;62534;-80
2022/11/14 05:50:44;;;;;;;11.00;6.40;;;;;;;6.65;100.00;102326.83;106908;1277;58764;-81
2022/11/14 05:53:33;;;;;;;13.60;6.70;;;;;;;6.70;100.00;102330.98;106944;1275;57208;-81
2022/11/14 05:56:21;;;;;;;11.30;6.50;;;;;;;6.76;100.00;102338.26;106715;1275;62200;-79
2022/11/14 05:59:08;;;;;;;13.30;6.40;;;;;;;6.73;100.00;102336.29;106984;1275;61881;-81
2022/11/14 06:01:56;;;;;;;11.50;6.40;;;;;;;6.73;100.00;102340.60;107034;1271;60417;-81
2022/11/14 06:04:43;;;;;;;12.50;6.50;;;;;;;6.76;100.00;102338.09;107224;1270;73063;-81
2022/11/14 06:07:35;;;;;;;10.10;5.40;;;;;;;6.78;100.00;102337.85;106970;1274;62502;-79
2022/11/14 06:10:24;;;;;;;10.60;5.90;;;;;;;6.83;100.00;102336.84;107184;1274;59764;-80
2022/11/14 06:13:11;;;;;;;10.60;5.50;;;;;;;6.84;100.00;102341.48;107023;1271;62225;-80
2022/11/14 06:16:01;;;;;;;10.10;5.60;;;;;;;6.88;100.00;102343.59;107078;1265;71359;-81
2022/11/14 06:18:51;;;;;;;12.00;6.80;;;;;;;6.87;100.00;102344.14;106936;1267;59541;-78
2022/11/14 06:21:38;;;;;;;12.80;7.00;;;;;;;6.90;100.00;102346.13;106772;1271;62458;-81
2022/11/14 06:24:25;;;;;;;12.70;6.30;;;;;;;6.92;100.00;102349.54;106886;1262;63438;-79
2022/11/14 06:27:13;;;;;;;9.70;6.20;;;;;;;6.97;100.00;102348.52;107087;1266;60085;-79
2022/11/14 06:30:00;;;;;;;11.50;5.90;;;;;;;7.00;100.00;102343.26;107097;1276;61970;-80
2022/11/14 06:32:48;;;;;;;9.50;4.50;;;;;;;7.02;100.00;102346.62;107111;1270;60785;-81
2022/11/14 06:35:35;;;;;;;12.40;5.60;;;;;;;7.05;100.00;102343.42;106931;1274;59033;-80
2022/11/14 06:38:23;;;;;;;9.60;4.70;;;;;;;7.05;100.00;102340.51;107023;1272;63646;-80
2022/11/14 06:41:23;;;;;;;11.90;6.20;;;;;;;7.07;100.00;102345.61;107092;1274;57848;-79
2022/11/14 06:44:10;;;;;;;8.60;5.50;;;;;;;7.08;100.00;102345.92;107194;1271;60336;-80
2022/11/14 06:46:58;;;;;;;11.00;6.20;;;;;;;7.08;100.00;102347.64;107115;1265;73278;-81
2022/11/14 06:49:45;;;;;;;12.70;5.10;;;;;;;7.09;100.00;102349.68;107141;1272;71723;-80
2022/11/14 06:52:32;;;;;;;9.40;5.50;;;;;;;7.11;100.00;102352.04;107100;1265;59196;-80
2022/11/14 06:55:20;;;;;;;11.00;5.60;;;;;;;7.12;100.00;102355.15;107000;1270;73110;-81
2022/11/14 06:58:12;;;;;;;9.50;5.10;;;;;;;7.16;99.97;102350.33;106903;1264;63234;-82
2022/11/14 07:01:06;;;;;;;9.50;5.40;;;;;;;7.11;100.00;102347.36;106958;1272;57465;-82
2022/11/14 07:03:57;;;;;;;13.10;6.60;;;;;;;7.14;100.00;102345.73;106822;1272;73544;-81
2022/11/14 07:06:46;;;;;;;6.80;4.40;;;;;;;7.14;100.00;102344.16;107013;1265;71223;-80
2022/11/14 07:09:33;;;;;;;10.30;5.20;;;;;;;7.17;100.00;102339.05;107058;1272;67591;-82
2022/11/14 07:12:20;;;;;;;11.40;6.50;;;;;;;7.20;100.00;102341.21;107152;1274;62901;-82
2022/11/14 07:15:09;;;;;;;11.30;6.60;;;;;;;7.19;100.00;102341.59;107010;1267;60543;-79
2022/11/14 07:17:59;;;;;;;11.10;6.00;;;;;;;7.24;99.98;102344.02;106839;1273;57361;-82
2022/11/14 07:20:47;;;;;;;10.00;5.00;;;;;;;7.28;100.00;102348.59;106889;1273;62224;-80
2022/11/14 07:23:34;;;;;;;8.20;4.70;;;;;;;7.29;99.88;102349.08;106953;1275;71453;-80
2022/11/14 07:26:22;;;;;;;8.30;4.80;;;;;;;7.25;99.52;102348.33;107086;1272;69693;-80
2022/11/14 07:29:09;;;;;;;9.30;5.00;;;;;;;7.33;99.58;102345.99;106783;1274;73372;-80
2022/11/14 07:31:56;;;;;;;13.60;5.30;;;;;;;7.36;99.48;102344.50;107154;1274;62558;-80
2022/11/14 07:34:44;;;;;;;8.20;4.90;;;;;;;7.35;99.39;102341.77;107120;1275;57765;-81
2022/11/14 07:37:31;;;;;;;9.30;5.20;;;;;;;7.37;99.27;102342.38;107172;1274;62910;-81
2022/11/14 07:40:19;;;;;;;9.10;5.30;;;;;;;7.39;99.16;102342.83;107233;1256;71413;-80
2022/11/14 07:43:06;;;;;;;9.00;5.50;;;;;;;7.38;99.30;102341.13;107277;1272;59650;-82
2022/11/14 07:46:06;;;;;;;10.30;5.40;;;;;;;7.42;99.74;102338.59;107428;1276;62443;-82
2022/11/14 07:48:54;;;;;;;9.50;5.50;;;;;;;7.44;99.10;102340.75;107144;1272;57204;-81
2022/11/14 07:51:41;;;;;;;14.70;5.20;;;;;;;7.45;99.04;102341.60;107357;1274;57489;-83
2022/11/14 07:54:57;;;;;;;12.70;5.10;;;;;;;7.49;98.89;102338.36;107166;1271;70753;-83
2022/11/14 07:57:49;;;;;;;10.60;5.30;;;;;;;7.54;98.70;102339.38;107166;1278;62511;-82
2022/11/14 08:00:36;;;;;;;12.90;5.80;;;;;;;7.56;98.21;102340.70;107120;1275;58942;-83
2022/11/14 08:03:31;;;;;;;11.80;6.10;;;;;;;7.62;98.59;102336.51;107192;1275;62387;-83
2022/11/14 08:06:20;;;;;;;9.20;5.00;;;;;;;7.64;98.30;102332.13;107470;1256;62165;-83
2022/11/14 08:09:11;;;;;;;10.90;5.20;;;;;;;7.58;97.40;102331.80;107370;1265;57221;-83
2022/11/14 08:12:00;;;;;;;11.20;5.40;;;;;;;7.56;96.99;102328.74;107319;1266;72995;-83
2022/11/14 08:14:48;;;;;;;11.40;5.90;;;;;;;7.71;97.28;102336.39;107450;1266;62880;-83
2022/11/14 08:28:53;;;;;;;14.60;6.50;;;;;;;8.20;94.99;102342.08;104902;1292;614586;-81
2022/11/14 08:31:44;;;;;;;11.70;6.20;;;;;;;8.23;94.01;102341.98;107035;1269;267276;-81
2022/11/14 08:34:32;;;;;;;11.00;6.10;;;;;;;8.03;94.31;102316.33;107475;1265;60382;-82
2022/11/14 08:37:19;;;;;;;10.80;6.40;;;;;;;8.12;94.23;102343.95;107419;1268;61203;-83
2022/11/14 08:40:06;;;;;;;10.70;6.40;;;;;;;8.16;94.41;102343.65;107320;1268;71207;-82
2022/11/14 08:43:01;;;;;;;13.80;6.60;;;;;;;8.15;94.14;102341.93;107353;1269;68045;-82
2022/11/14 08:45:48;;;;;;;9.10;5.80;;;;;;;8.17;94.22;102345.86;107103;1269;72997;-83
2022/11/14 08:48:42;;;;;;;9.90;5.80;;;;;;;8.18;94.41;102349.45;107611;1269;57453;-84
2022/11/14 08:51:28;;;;;;;10.10;5.90;;;;;;;8.18;93.88;102349.63;107336;1268;60180;-82
2022/11/14 08:54:18;;;;;;;12.40;6.70;;;;;;;8.18;93.98;102342.34;107272;1271;70806;-81
2022/11/14 08:57:05;;;;;;;8.80;5.20;;;;;;;8.19;93.82;102335.89;107153;1262;73128;-80
2022/11/14 09:05:54;;;;;;;10.10;5.70;;;;;;;8.23;93.14;102318.92;104970;1292;600370;-82
2022/11/14 09:08:41;;;;;;;7.50;4.10;;;;;;;8.07;94.02;102316.19;106920;1282;57443;-80
2022/11/14 09:11:29;;;;;;;10.00;4.20;;;;;;;7.85;93.67;102275.73;106684;1278;60279;-80
2022/11/14 09:14:17;;;;;;;8.70;4.60;;;;;;;8.00;94.56;102309.69;107403;1270;60861;-80
2022/11/14 09:17:05;;;;;;;9.90;5.20;;;;;;;8.09;93.95;102301.56;107427;1266;71174;-82
2022/11/14 09:19:54;;;;;;;10.00;5.60;;;;;;;8.06;94.47;102299.94;107381;1265;321906;-82
2022/11/14 09:22:42;;;;;;;14.20;6.10;;;;;;;8.10;94.31;102295.97;107497;1266;71886;-81
2022/11/14 09:25:31;;;;;;;15.00;6.40;;;;;;;8.08;94.66;102294.27;107558;1266;57548;-83
2022/11/14 09:28:18;;;;;;;13.60;6.20;;;;;;;8.07;95.41;102293.63;107587;1269;57482;-82
2022/11/14 09:31:17;;;;;;;15.20;6.50;;;;;;;8.15;95.47;102290.73;107685;1270;61187;-81
2022/11/14 09:34:04;;;;;;;19.30;6.70;;;;;;;8.25;95.33;102287.61;107488;1270;61708;-81
2022/11/14 09:36:51;;;;;;;11.10;6.00;;;;;;;8.41;93.90;102286.81;107572;1262;69568;-80
2022/11/14 09:39:39;;;;;;;9.80;5.70;;;;;;;8.44;93.27;102283.95;107533;1269;62912;-80
2022/11/14 09:42:47;;;;;;;10.10;5.60;;;;;;;8.46;92.54;102284.02;105463;1273;62051;-75
2022/11/14 09:45:41;;;;;;;11.50;6.40;;;;;;;8.39;92.65;102279.26;105343;1267;58970;-74
2022/11/14 09:48:31;;;;;;;13.80;7.00;;;;;;;8.29;93.60;102278.25;105292;1275;61743;-73
2022/11/14 09:51:24;;;;;;;12.90;8.20;;;;;;;8.28;93.97;102273.09;105341;1269;71432;-75
2022/11/14 09:54:23;;;;;;;12.50;6.20;;;;;;;8.35;93.57;102270.59;105518;1273;59340;-79
2022/11/14 09:57:19;;;;;;;11.30;6.00;;;;;;;8.45;92.30;102267.77;105604;1273;74006;-76
2022/11/14 10:00:18;;;;;;;16.20;7.60;;;;;;;8.36;92.65;102264.98;105738;1266;59124;-77
2022/11/14 10:03:42;;;;;;;12.40;7.30;;;;;;;8.27;93.72;102264.44;105765;1267;59614;-77
2022/11/14 10:06:39;;;;;;;;;;;;;;;8.34;92.17;102263.15;105626;1267;62185;-77
2022/11/14 10:09:50;;;;;;;12.40;7.50;;;;;;;8.32;90.59;102261.65;105654;1267;60850;-79
2022/11/14 10:12:46;;;;;;;12.90;6.80;;;;;;;8.37;90.19;102262.87;105903;1267;70393;-78
2022/11/14 10:15:46;;;;;;;12.40;6.70;;;;;;;8.49;90.80;102261.00;105645;1266;72886;-76
2022/11/14 10:19:11;;;;;;;11.90;6.10;;;;;;;8.63;90.28;102255.23;105518;1263;62594;-75
2022/11/14 10:22:37;;;;;;;16.00;7.30;;;;;;;8.62;91.16;102255.81;105581;1261;57793;-75
2022/11/14 10:25:34;;;;;;;9.50;5.10;;;;;;;8.74;90.86;102247.35;105467;1274;62056;-76
2022/11/14 10:29:13;;;;;;;14.60;6.50;;;;;;;8.81;90.14;102245.86;105567;1266;60775;-75
2022/11/14 10:32:45;;;;;;;12.00;6.40;;;;;;;8.78;89.33;102242.85;105552;1267;60164;-76
2022/11/14 10:35:48;;;;;;;9.70;5.50;;;;;;;8.70;89.37;102243.69;105480;1265;72857;-76
2022/11/14 10:38:49;;;;;;;12.60;5.50;;;;;;;8.60;90.25;102241.48;105498;1265;59047;-77
2022/11/14 10:41:37;;;;;;;14.80;5.90;;;;;;;8.58;90.24;102235.13;105476;1268;61217;-76
2022/11/14 10:45:16;;;;;;;9.60;5.60;;;;;;;8.55;90.94;102239.09;105487;1274;61965;-76
2022/11/14 10:48:47;;;;;;;11.70;6.30;;;;;;;8.60;90.96;102242.67;105452;1269;60879;-77
2022/11/14 10:51:44;;;;;;;10.10;5.30;;;;;;;8.68;90.76;102235.08;105638;1270;69647;-78
2022/11/14 10:54:55;;;;;;;10.40;5.30;;;;;;;8.68;89.50;102233.15;105354;1268;63508;-76
2022/11/14 10:57:45;;;;;;;13.40;7.40;;;;;;;8.67;88.65;102229.89;105485;1270;58858;-77
2022/11/14 11:00:32;;;;;;;13.40;6.60;;;;;;;8.65;88.17;102224.77;105577;1269;58521;-77
2022/11/14 11:03:19;;;;;;;13.80;7.60;;;;;;;8.73;88.04;102222.53;105531;1264;72694;-77
2022/11/14 11:06:24;;;;;;;11.10;6.40;;;;;;;8.84;87.30;102225.06;105337;1264;61994;-76
2022/11/14 11:12:35;;;;;;;12.50;6.60;;;;;;;8.88;87.42;102221.23;105395;1264;72337;-75
2022/11/14 11:15:30;;;;;;;;;;;;;;;8.86;87.38;102220.09;105398;1267;58946;-76
2022/11/14 11:18:29;;;;;;;13.40;7.80;;;;;;;8.91;85.40;102217.12;105390;1274;59324;-77
2022/11/14 11:21:22;;;;;;;12.20;6.40;;;;;;;8.86;86.21;102216.79;105334;1273;73879;-78
2022/11/14 11:24:09;;;;;;;10.50;6.70;;;;;;;8.82;86.80;102215.56;105431;1274;61515;-77
2022/11/14 11:27:19;;;;;;;12.10;7.00;;;;;;;8.89;86.16;102210.58;105355;1272;70960;-76
2022/11/14 11:30:22;;;;;;;15.10;7.50;;;;;;;8.86;86.73;102210.05;105337;1263;74028;-77
2022/11/14 11:33:19;;;;;;;11.50;6.40;;;;;;;8.99;84.41;102204.45;105241;1268;59115;-77
2022/11/14 11:36:16;;;;;;;14.70;7.20;;;;;;;8.93;82.63;102199.48;105304;1269;61219;-76
2022/11/14 11:39:04;;;;;;;12.90;8.10;;;;;;;8.94;81.73;102195.45;105362;1274;72812;-77
2022/11/14 11:41:57;;;;;;;17.20;7.60;;;;;;;8.87;83.13;102194.88;105394;1275;70723;-78
2022/11/14 11:45:04;;;;;;;9.80;6.80;;;;;;;9.01;81.32;102191.14;105401;1266;70374;-77
2022/11/14 11:48:18;;;;;;;13.60;7.00;;;;;;;8.96;78.85;102177.81;105217;1272;73670;-77
2022/11/14 11:51:15;;;;;;;10.70;6.90;;;;;;;9.07;79.59;102183.98;105376;1270;62170;-77
2022/11/14 11:54:15;;;;;;;14.80;8.70;;;;;;;9.12;79.51;102183.75;105430;1270;59248;-78
2022/11/14 11:57:12;;;;;;;13.90;9.10;;;;;;;9.10;79.69;102177.76;105260;1274;72932;-78
2022/11/14 12:00:17;;;;;;;12.00;7.80;;;;;;;9.17;79.35;102182.12;105964;1273;61221;-77
2022/11/14 12:03:11;;;;;;;12.30;8.20;;;;;;;9.29;79.76;102180.90;105446;1258;59155;-76
2022/11/14 12:06:16;;;;;;;13.80;8.10;;;;;;;9.27;78.25;102176.99;105456;1269;63268;-76
2022/11/14 12:09:32;;;;;;;14.50;9.20;;;;;;;9.25;76.24;102178.30;105530;1264;59065;-76
2022/11/14 12:12:42;;;;;;;14.50;8.80;;;;;;;9.11;74.09;102180.27;105467;1270;62306;-75
2022/11/14 12:16:19;;;;;;;13.90;8.00;;;;;;;9.32;75.60;102180.76;105470;1265;72665;-76
2022/11/14 12:19:13;;;;;;;16.20;9.40;;;;;;;9.39;73.88;102171.78;105503;1266;70281;-76
2022/11/14 12:22:34;;;;;;;15.60;9.70;;;;;;;9.29;75.22;102166.83;105626;1270;59736;-77
2022/11/14 12:25:34;;;;;;;15.80;8.40;;;;;;;9.24;75.34;102163.20;105686;1274;73947;-77
2022/11/14 12:29:12;;;;;;;13.40;8.90;;;;;;;9.22;74.51;102162.08;105586;1274;57891;-78
2022/11/14 12:32:12;;;;;;;14.30;9.60;;;;;;;9.31;75.45;102161.85;105454;1266;62237;-79
2022/11/14 12:35:06;;;;;;;18.40;10.00;;;;;;;9.13;73.79;102163.71;105524;1261;71733;-77
2022/11/14 12:37:57;;;;;;;16.90;9.60;;;;;;;8.97;73.51;102160.73;105397;1274;61512;-78
2022/11/14 12:40:56;;;;;;;13.10;9.30;;;;;;;8.96;74.64;102159.05;105507;1261;69504;-77
2022/11/14 12:43:43;;;;;;;12.70;8.80;;;;;;;9.10;75.68;102161.91;105424;1273;63511;-77
2022/11/14 12:47:05;;;;;;;14.20;8.60;;;;;;;9.11;75.96;102156.13;105532;1260;61006;-77
2022/11/14 12:49:53;;;;;;;11.30;8.30;;;;;;;9.05;76.54;102160.39;105669;1266;59436;-78
2022/11/14 12:52:43;;;;;;;14.40;9.30;;;;;;;9.04;76.62;102160.45;105584;1269;61913;-78
2022/11/14 12:55:30;;;;;;;14.40;8.70;;;;;;;9.06;77.01;102157.23;105545;1273;72131;-78
2022/11/14 12:58:34;;;;;;;13.10;9.00;;;;;;;9.06;76.95;102158.80;105569;1264;60036;-77
2022/11/14 13:01:51;;;;;;;14.60;8.90;;;;;;;8.97;76.51;102157.27;105509;1273;73292;-77
2022/11/14 13:05:07;;;;;;;12.00;8.20;;;;;;;9.00;76.81;102156.95;105500;1263;62740;-77
2022/11/14 13:08:41;;;;;;;13.60;8.50;;;;;;;8.99;76.69;102157.88;105499;1259;59157;-78
2022/11/14 13:21:45;;;;;;;13.70;8.70;;;;;;;8.91;76.86;102149.91;105560;1266;73447;-77
2022/11/14 13:24:57;;;;;;;15.80;9.70;;;;;;;8.88;76.84;102150.17;105647;1267;59042;-78
2022/11/14 13:27:45;;;;;;;17.90;9.60;;;;;;;8.93;77.08;102146.17;105630;1272;62133;-77
2022/11/14 13:31:14;;;;;;;13.30;8.00;;;;;;;8.96;76.66;102147.73;105640;1267;71405;-75
2022/11/14 13:34:53;;;;;;;15.10;9.20;;;;;;;9.07;75.59;102146.94;105575;1266;72413;-77
2022/11/14 13:38:18;;;;;;;17.00;10.70;;;;;;;8.93;76.26;102143.03;105665;1266;59830;-77
2022/11/14 13:41:46;;;;;;;12.20;8.10;;;;;;;8.79;76.24;102141.03;105610;1263;62431;-76